Time,TemperatureF,DewpointF,PressureIn,WindDirection,WindDirectionDegrees,WindSpeedMPH,WindSpeedGustMPH,Humidity,HourlyPrecipIn,Conditions,Clouds,dailyrainin,SoftwareType,DateUTC
2013-03-18 00:08:00,34.6,32.0,29.65,South,188,0.0,6.0,91,0.00,,,0.00,weatherlink.com 1.10,2013-03-18 05:08:00,
2013-03-18 00:23:00,34.5,32.0,29.66,WNW,290,0.0,1.0,91,0.00,,,0.00,weatherlink.com 1.10,2013-03-18 05:23:00,
2013-03-18 00:38:00,33.8,31.0,29.65,SSW,193,0.0,1.0,90,0.00,,,0.00,weatherlink.com 1.10,2013-03-18 05:38:00,
2013-03-18 00:53:00,33.2,31.0,29.65,SSW,193,0.0,0.0,91,0.00,,,0.00,weatherlink.com 1.10,2013-03-18 05:53:00,
2013-03-18 01:08:00,33.0,31.0,29.64,SSW,193,0.0,0.0,92,0.00,,,0.00,weatherlink.com 1.10,2013-03-18 06:08:00,
2013-03-18 01:23:00,32.8,31.0,29.62,SSE,150,4.0,4.0,92,0.00,,,0.00,weatherlink.com 1.10,2013-03-18 06:23:00,
2013-03-18 01:38:00,32.7,31.0,29.58,SE,139,10.0,12.0,93,0.00,,,0.00,weatherlink.com 1.10,2013-03-18 06:38:00,
2013-03-18 01:53:00,32.9,31.0,29.58,SE,143,9.0,15.0,94,0.00,,,0.00,weatherlink.com 1.10,2013-03-18 06:53:00,
2013-03-18 02:08:00,33.0,32.0,29.59,SSE,148,8.0,11.0,94,0.00,,,0.00,weatherlink.com 1.10,2013-03-18 07:08:00,
2013-03-18 02:23:00,33.1,32.0,29.58,SSE,165,10.0,14.0,94,0.00,,,0.00,weatherlink.com 1.10,2013-03-18 07:23:00,
2013-03-18 02:38:00,33.2,32.0,29.61,South,176,5.0,9.0,94,0.00,,,0.00,weatherlink.com 1.10,2013-03-18 07:38:00,
2013-03-18 02:53:00,33.2,32.0,29.61,SE,131,10.0,11.0,94,0.00,,,0.00,weatherlink.com 1.10,2013-03-18 07:53:00,
2013-03-18 03:08:00,33.2,32.0,29.63,NW,323,1.0,14.0,94,0.00,,,0.00,weatherlink.com 1.10,2013-03-18 08:08:00,
2013-03-18 03:23:00,33.2,32.0,29.64,ESE,113,0.0,2.0,94,0.00,,,0.00,weatherlink.com 1.10,2013-03-18 08:23:00,
2013-03-18 03:38:00,33.2,32.0,29.64,WNW,286,0.0,5.0,94,0.00,,,0.00,weatherlink.com 1.10,2013-03-18 08:38:00,
2013-03-18 03:53:00,33.3,32.0,29.63,SSW,201,1.0,3.0,94,0.00,,,0.00,weatherlink.com 1.10,2013-03-18 08:53:00,
2013-03-18 04:08:00,33.4,32.0,29.63,West,273,1.0,4.0,94,0.00,,,0.00,weatherlink.com 1.10,2013-03-18 09:08:00,
2013-03-18 04:23:00,33.5,32.0,29.62,ESE,112,0.0,3.0,94,0.00,,,0.00,weatherlink.com 1.10,2013-03-18 09:23:00,
2013-03-18 04:38:00,33.6,32.0,29.61,WSW,245,0.0,2.0,94,0.00,,,0.00,weatherlink.com 1.10,2013-03-18 09:38:00,
2013-03-18 04:53:00,33.6,32.0,29.61,NNE,20,0.0,2.0,94,0.00,,,0.00,weatherlink.com 1.10,2013-03-18 09:53:00,
2013-03-18 05:08:00,33.6,32.0,29.61,SSE,156,0.0,2.0,94,0.01,,,0.01,weatherlink.com 1.10,2013-03-18 10:08:00,
2013-03-18 05:23:00,33.7,32.0,29.61,ESE,117,1.0,3.0,94,0.01,,,0.01,weatherlink.com 1.10,2013-03-18 10:23:00,
2013-03-18 05:38:00,33.8,32.0,29.61,WSW,238,3.0,4.0,94,0.01,,,0.01,weatherlink.com 1.10,2013-03-18 10:38:00,
2013-03-18 05:53:00,34.1,33.0,29.61,East,79,2.0,6.0,94,0.02,,,0.02,weatherlink.com 1.10,2013-03-18 10:53:00,
2013-03-18 06:08:00,34.5,33.0,29.61,WNW,294,5.0,8.0,94,0.02,,,0.03,weatherlink.com 1.10,2013-03-18 11:08:00,
2013-03-18 06:23:00,35.0,34.0,29.61,WNW,293,7.0,8.0,94,0.02,,,0.03,weatherlink.com 1.10,2013-03-18 11:23:00,
2013-03-18 06:38:00,35.5,34.0,29.62,WNW,294,9.0,14.0,94,0.03,,,0.04,weatherlink.com 1.10,2013-03-18 11:38:00,
2013-03-18 06:53:00,35.3,33.0,29.63,WNW,297,11.0,15.0,92,0.03,,,0.05,weatherlink.com 1.10,2013-03-18 11:53:00,
2013-03-18 07:08:00,34.8,32.0,29.64,WNW,297,12.0,17.0,90,0.02,,,0.05,weatherlink.com 1.10,2013-03-18 12:08:00,
2013-03-18 07:23:00,34.1,30.0,29.64,WNW,295,8.0,21.0,86,0.02,,,0.05,weatherlink.com 1.10,2013-03-18 12:23:00,
2013-03-18 07:38:00,33.8,30.0,29.65,NW,304,7.0,13.0,86,0.01,,,0.05,weatherlink.com 1.10,2013-03-18 12:38:00,
2013-03-18 07:54:00,33.5,29.0,29.65,NW,314,11.0,19.0,82,0.00,,,0.05,weatherlink.com 1.10,2013-03-18 12:54:00,
2013-03-18 08:09:00,33.5,28.0,29.66,WNW,302,9.0,19.0,81,0.00,,,0.05,weatherlink.com 1.10,2013-03-18 13:09:00,
2013-03-18 08:24:00,33.8,29.0,29.66,WNW,288,5.0,16.0,81,0.00,,,0.05,weatherlink.com 1.10,2013-03-18 13:24:00,
2013-03-18 08:39:00,33.6,28.0,29.67,WNW,294,10.0,17.0,81,0.00,,,0.05,weatherlink.com 1.10,2013-03-18 13:39:00,
2013-03-18 08:54:00,33.4,27.0,29.68,WNW,297,20.0,23.0,78,0.01,,,0.06,weatherlink.com 1.10,2013-03-18 13:54:00,
2013-03-18 09:09:00,32.9,22.0,29.68,WNW,298,18.0,30.0,64,0.01,,,0.06,weatherlink.com 1.10,2013-03-18 14:09:00,
2013-03-18 09:24:00,33.0,23.0,29.69,NW,319,12.0,20.0,67,0.01,,,0.06,weatherlink.com 1.10,2013-03-18 14:24:00,
2013-03-18 09:39:00,32.9,21.0,29.69,WNW,300,17.0,26.0,62,0.01,,,0.06,weatherlink.com 1.10,2013-03-18 14:39:00,
2013-03-18 09:54:00,33.3,22.0,29.70,NW,307,20.0,30.0,64,0.00,,,0.06,weatherlink.com 1.10,2013-03-18 14:54:00,
2013-03-18 10:09:00,33.6,24.0,29.71,WNW,297,13.0,24.0,67,0.00,,,0.06,weatherlink.com 1.10,2013-03-18 15:09:00,
2013-03-18 10:24:00,34.2,24.0,29.71,WNW,297,12.0,30.0,66,0.00,,,0.06,weatherlink.com 1.10,2013-03-18 15:24:00,
2013-03-18 10:39:00,34.4,22.0,29.71,NW,304,19.0,32.0,62,0.00,,,0.06,weatherlink.com 1.10,2013-03-18 15:39:00,
2013-03-18 10:54:00,34.6,23.0,29.71,WNW,296,23.0,28.0,64,0.00,,,0.06,weatherlink.com 1.10,2013-03-18 15:54:00,
2013-03-18 11:09:00,34.3,23.0,29.71,WNW,298,23.0,38.0,64,0.00,,,0.06,weatherlink.com 1.10,2013-03-18 16:09:00,
2013-03-18 11:24:00,34.7,23.0,29.72,WNW,297,21.0,37.0,63,0.00,,,0.06,weatherlink.com 1.10,2013-03-18 16:24:00,
2013-03-18 11:39:00,34.7,22.0,29.73,WNW,300,25.0,31.0,61,0.00,,,0.06,weatherlink.com 1.10,2013-03-18 16:39:00,
2013-03-18 11:54:00,35.3,23.0,29.72,NW,305,21.0,32.0,61,0.00,,,0.06,weatherlink.com 1.10,2013-03-18 16:54:00,
2013-03-18 12:09:00,35.6,24.0,29.73,NW,306,30.0,31.0,62,0.00,,,0.06,weatherlink.com 1.10,2013-03-18 17:09:00,
2013-03-18 12:24:00,35.5,22.0,29.73,WNW,285,21.0,35.0,59,0.00,,,0.06,weatherlink.com 1.10,2013-03-18 17:24:00,
2013-03-18 12:39:00,35.7,22.0,29.74,NW,307,18.0,31.0,59,0.00,,,0.06,weatherlink.com 1.10,2013-03-18 17:39:00,
2013-03-18 12:54:00,35.8,21.0,29.73,WNW,297,16.0,39.0,56,0.00,,,0.06,weatherlink.com 1.10,2013-03-18 17:54:00,
2013-03-18 13:09:00,35.3,20.0,29.74,WNW,300,23.0,41.0,54,0.00,,,0.06,weatherlink.com 1.10,2013-03-18 18:09:00,
2013-03-18 13:24:00,35.8,20.0,29.75,NW,308,30.0,37.0,54,0.00,,,0.06,weatherlink.com 1.10,2013-03-18 18:24:00,
2013-03-18 13:39:00,35.6,19.0,29.75,WNW,295,25.0,36.0,51,0.00,,,0.06,weatherlink.com 1.10,2013-03-18 18:39:00,
2013-03-18 13:54:00,35.6,18.0,29.75,WNW,295,30.0,42.0,49,0.00,,,0.06,weatherlink.com 1.10,2013-03-18 18:54:00,
2013-03-18 14:09:00,35.9,19.0,29.75,WNW,297,18.0,38.0,51,0.00,,,0.06,weatherlink.com 1.10,2013-03-18 19:09:00,
2013-03-18 14:24:00,36.7,20.0,29.75,WNW,291,19.0,38.0,50,0.00,,,0.06,weatherlink.com 1.10,2013-03-18 19:24:00,
2013-03-18 14:39:00,36.7,19.0,29.75,WNW,302,19.0,40.0,49,0.00,,,0.06,weatherlink.com 1.10,2013-03-18 19:39:00,
2013-03-18 14:54:00,37.0,20.0,29.76,WNW,298,22.0,39.0,50,0.00,,,0.06,weatherlink.com 1.10,2013-03-18 19:54:00,
2013-03-18 15:09:00,36.6,19.0,29.76,WNW,300,26.0,40.0,50,0.00,,,0.06,weatherlink.com 1.10,2013-03-18 20:09:00,
2013-03-18 15:24:00,37.1,20.0,29.75,NW,323,27.0,36.0,51,0.00,,,0.06,weatherlink.com 1.10,2013-03-18 20:24:00,
2013-03-18 15:39:00,37.1,20.0,29.76,NW,307,24.0,35.0,50,0.00,,,0.06,weatherlink.com 1.10,2013-03-18 20:39:00,
2013-03-18 15:54:00,36.9,19.0,29.76,WNW,300,18.0,34.0,48,0.00,,,0.06,weatherlink.com 1.10,2013-03-18 20:54:00,
2013-03-18 16:09:00,37.3,19.0,29.77,WNW,300,26.0,40.0,47,0.00,,,0.06,weatherlink.com 1.10,2013-03-18 21:09:00,
2013-03-18 16:24:00,37.7,19.0,29.78,NW,308,26.0,30.0,48,0.00,,,0.06,weatherlink.com 1.10,2013-03-18 21:24:00,
2013-03-18 16:39:00,37.7,19.0,29.78,WNW,301,18.0,33.0,47,0.00,,,0.06,weatherlink.com 1.10,2013-03-18 21:39:00,
2013-03-18 16:54:00,37.5,18.0,29.79,WNW,302,17.0,34.0,46,0.00,,,0.06,weatherlink.com 1.10,2013-03-18 21:54:00,
2013-03-18 17:09:00,37.4,19.0,29.78,WNW,301,18.0,35.0,47,0.00,,,0.06,weatherlink.com 1.10,2013-03-18 22:09:00,
2013-03-18 17:24:00,37.4,18.0,29.79,WNW,287,20.0,28.0,46,0.00,,,0.06,weatherlink.com 1.10,2013-03-18 22:24:00,
2013-03-18 17:40:00,37.6,18.0,29.79,WNW,294,15.0,28.0,46,0.00,,,0.06,weatherlink.com 1.10,2013-03-18 22:40:00,
2013-03-18 17:54:00,36.9,17.0,29.80,WNW,298,19.0,30.0,44,0.00,,,0.06,weatherlink.com 1.10,2013-03-18 22:54:00,
2013-03-18 18:10:00,36.8,17.0,29.81,NW,304,18.0,29.0,45,0.00,,,0.06,weatherlink.com 1.10,2013-03-18 23:10:00,
2013-03-18 18:25:00,36.7,17.0,29.81,WNW,299,17.0,27.0,45,0.00,,,0.06,weatherlink.com 1.10,2013-03-18 23:25:00,
2013-03-18 18:40:00,36.3,17.0,29.81,WNW,300,17.0,23.0,46,0.00,,,0.06,weatherlink.com 1.10,2013-03-18 23:40:00,
2013-03-18 18:55:00,36.0,17.0,29.82,WNW,293,15.0,25.0,47,0.00,,,0.06,weatherlink.com 1.10,2013-03-18 23:55:00,
2013-03-18 19:10:00,35.5,17.0,29.83,WNW,295,10.0,22.0,48,0.00,,,0.06,weatherlink.com 1.10,2013-03-19 00:10:00,
2013-03-18 19:25:00,34.9,17.0,29.83,NW,309,10.0,21.0,49,0.00,,,0.06,weatherlink.com 1.10,2013-03-19 00:25:00,
2013-03-18 19:40:00,34.4,17.0,29.84,NW,323,10.0,22.0,49,0.00,,,0.06,weatherlink.com 1.10,2013-03-19 00:40:00,
2013-03-18 19:55:00,33.6,17.0,29.85,WNW,295,10.0,14.0,51,0.00,,,0.06,weatherlink.com 1.10,2013-03-19 00:55:00,
2013-03-18 20:10:00,33.1,17.0,29.85,NW,304,7.0,12.0,53,0.00,,,0.06,weatherlink.com 1.10,2013-03-19 01:10:00,
2013-03-18 20:25:00,32.5,18.0,29.86,WNW,291,7.0,10.0,55,0.00,,,0.06,weatherlink.com 1.10,2013-03-19 01:25:00,
2013-03-18 20:40:00,32.1,18.0,29.86,WNW,300,6.0,10.0,56,0.00,,,0.06,weatherlink.com 1.10,2013-03-19 01:40:00,
2013-03-18 20:55:00,31.6,18.0,29.87,WNW,295,5.0,8.0,57,0.00,,,0.06,weatherlink.com 1.10,2013-03-19 01:55:00,
2013-03-18 21:10:00,31.0,18.0,29.86,NW,314,5.0,9.0,58,0.00,,,0.06,weatherlink.com 1.10,2013-03-19 02:10:00,
2013-03-18 21:25:00,30.6,18.0,29.86,NW,326,3.0,9.0,59,0.00,,,0.06,weatherlink.com 1.10,2013-03-19 02:25:00,
2013-03-18 21:40:00,30.1,18.0,29.86,NW,307,5.0,6.0,60,0.00,,,0.06,weatherlink.com 1.10,2013-03-19 02:40:00,
2013-03-18 21:55:00,29.6,18.0,29.87,WNW,294,2.0,6.0,61,0.00,,,0.06,weatherlink.com 1.10,2013-03-19 02:55:00,
2013-03-18 22:10:00,28.4,18.0,29.88,NNW,342,0.0,1.0,64,0.00,,,0.06,weatherlink.com 1.10,2013-03-19 03:10:00,
2013-03-18 22:25:00,27.8,18.0,29.89,West,279,0.0,3.0,66,0.00,,,0.06,weatherlink.com 1.10,2013-03-19 03:25:00,
2013-03-18 22:40:00,27.3,18.0,29.89,WNW,293,0.0,2.0,67,0.00,,,0.06,weatherlink.com 1.10,2013-03-19 03:40:00,
2013-03-18 22:55:00,27.9,18.0,29.90,WNW,301,1.0,3.0,66,0.00,,,0.06,weatherlink.com 1.10,2013-03-19 03:55:00,
2013-03-18 23:10:00,27.9,18.0,29.90,NW,323,2.0,4.0,66,0.00,,,0.06,weatherlink.com 1.10,2013-03-19 04:10:00,
2013-03-18 23:25:00,28.1,19.0,29.90,WNW,295,2.0,6.0,68,0.00,,,0.06,weatherlink.com 1.10,2013-03-19 04:25:00,
2013-03-18 23:40:00,27.6,19.0,29.90,NW,305,3.0,3.0,70,0.00,,,0.06,weatherlink.com 1.10,2013-03-19 04:40:00,
2013-03-18 23:56:00,27.6,20.0,29.90,NW,304,3.0,4.0,72,0.00,,,0.06,weatherlink.com 1.10,2013-03-19 04:56:00,